メインページ
METAR-TAF:

METAR-TAF

空港 :

ソルトレイクシティ, ユタ州, アメリカ合衆国

ソルトレイクシティ国際空港

緯度: 40-46-41N, 経度: 111-58-10W, 海抜: 1288m

現時点の気象観測

当レポートは1時間15分前の20:54(UTC)に作成
の風 13kt
気温 -2°C
湿度 69%
気圧 1002 hPa
視程: 11.3km
高度2900ftの雲はほとんどない
高度3800ftの千切れ雲あり
高度4800ftの曇り
小雪

METAR: KSLC 192054Z 35013KT 7SM -SN FEW029 BKN038 OVC048 M02/M07 A2958 RMK AO2 SNE25B33 SLP025 VIRGA DSNT SW-W P0000 60000 T10171067 51011 $

時間: 15:09 (22:09 UTC)

予報

当レポートは1時間44分前の20:25(UTC)に作成
予報は19日の 20時(UTC)から 20日の 24時(UTC)まで有効
北/北西の風 13kt
視程: 8.0km
高度2000ftの雲は散在している
高度3000ftの千切れ雲あり
弱いにわか雪, 靄
19日の 2200時(UTC)から
北西の風 10kt
視程: 10km
高度2000ftの雲は散在している
高度3500ftの千切れ雲あり
近辺でにわか雨
20日の 1200時(UTC)から
西/北西の風 6kt
視程: 10km
高度5000ftの雲は散在している
高度7000ftの千切れ雲あり

TAF: KSLC 192025Z 1920/2024 33013KT 5SM -SHSN BR SCT020 BKN030 FM192200 32010KT P6SM VCSH SCT020 BKN035 FM201200 30006KT P6SM SCT050 BKN070

4,000以上の空港の気象観測と天気予報(METAR報とTAF報)

利用可能な観測所は地図上に黄色い丸と赤い丸で示す。

丸の上にカーソルを重ねると観測所名を参照できる。

次にクリックすると気象観測と天気予報を参照できる。

マップの切り替え:黒色「×」印の緑ボタンをクリックして拡大、「-」印の緑ボタンをクリックして縮小、緑色の三角印をクリックして隣りの地図に切り替え


METAR-TAF: